sensor_id;sensor_type;location;lat;lon;timestamp;temperature;humidity
13596;DHT22;6868;52.544;13.416;2023-02-23T00:00:07;5.00;99.90
13596;DHT22;6868;52.544;13.416;2023-02-23T00:07:41;5.50;99.90
13596;DHT22;6868;52.544;13.416;2023-02-23T00:12:37;5.00;99.90
13596;DHT22;6868;52.544;13.416;2023-02-23T00:15:04;5.20;99.90
13596;DHT22;6868;52.544;13.416;2023-02-23T00:17:31;5.30;99.90
13596;DHT22;6868;52.544;13.416;2023-02-23T00:20:01;5.10;99.90
13596;DHT22;6868;52.544;13.416;2023-02-23T00:22:36;5.20;99.90
13596;DHT22;6868;52.544;13.416;2023-02-23T00:25:06;5.20;99.90
13596;DHT22;6868;52.544;13.416;2023-02-23T00:27:35;5.10;99.90
13596;DHT22;6868;52.544;13.416;2023-02-23T00:50:01;4.80;99.90
13596;DHT22;6868;52.544;13.416;2023-02-23T00:52:29;4.80;99.90
13596;DHT22;6868;52.544;13.416;2023-02-23T00:54:55;4.90;99.90
13596;DHT22;6868;52.544;13.416;2023-02-23T00:57:22;5.50;99.90
13596;DHT22;6868;52.544;13.416;2023-02-23T00:59:49;5.20;99.90
13596;DHT22;6868;52.544;13.416;2023-02-23T01:02:16;4.80;99.90
13596;DHT22;6868;52.544;13.416;2023-02-23T01:07:11;4.80;99.90
13596;DHT22;6868;52.544;13.416;2023-02-23T01:09:38;5.10;99.90
13596;DHT22;6868;52.544;13.416;2023-02-23T01:12:05;5.10;99.90
13596;DHT22;6868;52.544;13.416;2023-02-23T01:14:32;4.70;99.90
13596;DHT22;6868;52.544;13.416;2023-02-23T01:19:27;4.60;99.90
13596;DHT22;6868;52.544;13.416;2023-02-23T01:21:58;4.70;99.90
13596;DHT22;6868;52.544;13.416;2023-02-23T01:24:27;4.60;99.90
13596;DHT22;6868;52.544;13.416;2023-02-23T01:26:54;4.60;99.90
13596;DHT22;6868;52.544;13.416;2023-02-23T01:29:21;4.70;99.90
13596;DHT22;6868;52.544;13.416;2023-02-23T01:31:49;4.60;99.90
13596;DHT22;6868;52.544;13.416;2023-02-23T01:34:17;4.60;99.90
13596;DHT22;6868;52.544;13.416;2023-02-23T01:36:44;4.70;99.90
13596;DHT22;6868;52.544;13.416;2023-02-23T01:39:12;5.00;99.90
13596;DHT22;6868;52.544;13.416;2023-02-23T01:46:50;4.60;99.90
13596;DHT22;6868;52.544;13.416;2023-02-23T01:49:19;4.50;99.90
13596;DHT22;6868;52.544;13.416;2023-02-23T01:51:48;4.00;99.90
13596;DHT22;6868;52.544;13.416;2023-02-23T01:54:17;4.50;99.90
13596;DHT22;6868;52.544;13.416;2023-02-23T01:59:13;4.30;99.90
13596;DHT22;6868;52.544;13.416;2023-02-23T02:01:41;4.40;99.90
13596;DHT22;6868;52.544;13.416;2023-02-23T02:04:10;4.40;99.90
13596;DHT22;6868;52.544;13.416;2023-02-23T02:06:43;4.30;99.90
13596;DHT22;6868;52.544;13.416;2023-02-23T02:09:12;4.30;99.90
13596;DHT22;6868;52.544;13.416;2023-02-23T02:11:42;4.40;99.90
13596;DHT22;6868;52.544;13.416;2023-02-23T02:16:45;4.30;99.90
13596;DHT22;6868;52.544;13.416;2023-02-23T02:22:17;4.50;99.90
13596;DHT22;6868;52.544;13.416;2023-02-23T02:27:40;4.30;99.90
13596;DHT22;6868;52.544;13.416;2023-02-23T02:30:22;4.40;99.90
13596;DHT22;6868;52.544;13.416;2023-02-23T02:33:03;4.20;99.90
13596;DHT22;6868;52.544;13.416;2023-02-23T02:43:27;4.10;99.90
13596;DHT22;6868;52.544;13.416;2023-02-23T02:46:01;4.30;99.90
13596;DHT22;6868;52.544;13.416;2023-02-23T02:48:32;3.30;99.90
13596;DHT22;6868;52.544;13.416;2023-02-23T02:53:35;4.20;99.90
13596;DHT22;6868;52.544;13.416;2023-02-23T02:56:05;4.30;99.90
13596;DHT22;6868;52.544;13.416;2023-02-23T02:58:33;4.40;99.90
13596;DHT22;6868;52.544;13.416;2023-02-23T03:01:06;4.20;99.90
13596;DHT22;6868;52.544;13.416;2023-02-23T03:03:50;4.40;99.90
13596;DHT22;6868;52.544;13.416;2023-02-23T03:06:37;4.20;99.90
13596;DHT22;6868;52.544;13.416;2023-02-23T03:09:24;4.20;99.90
13596;DHT22;6868;52.544;13.416;2023-02-23T03:12:14;4.40;99.90
13596;DHT22;6868;52.544;13.416;2023-02-23T03:15:03;4.00;99.90
13596;DHT22;6868;52.544;13.416;2023-02-23T03:20:40;4.00;99.90
13596;DHT22;6868;52.544;13.416;2023-02-23T03:26:12;4.00;99.90
13596;DHT22;6868;52.544;13.416;2023-02-23T03:28:58;4.10;99.90
13596;DHT22;6868;52.544;13.416;2023-02-23T03:34:32;4.00;99.90
13596;DHT22;6868;52.544;13.416;2023-02-23T03:37:19;4.20;99.90
13596;DHT22;6868;52.544;13.416;2023-02-23T03:40:05;4.00;99.90
13596;DHT22;6868;52.544;13.416;2023-02-23T03:42:50;4.00;99.90
13596;DHT22;6868;52.544;13.416;2023-02-23T03:45:36;4.00;99.90
13596;DHT22;6868;52.544;13.416;2023-02-23T03:48:21;4.00;99.90
13596;DHT22;6868;52.544;13.416;2023-02-23T03:51:08;4.00;99.90
13596;DHT22;6868;52.544;13.416;2023-02-23T03:53:56;4.00;99.90
13596;DHT22;6868;52.544;13.416;2023-02-23T03:56:43;4.10;99.90
13596;DHT22;6868;52.544;13.416;2023-02-23T03:59:30;4.40;99.90
13596;DHT22;6868;52.544;13.416;2023-02-23T04:05:03;3.90;99.90
13596;DHT22;6868;52.544;13.416;2023-02-23T04:10:34;3.80;99.90
13596;DHT22;6868;52.544;13.416;2023-02-23T04:13:23;4.20;99.90
13596;DHT22;6868;52.544;13.416;2023-02-23T04:15:53;4.40;99.90
13596;DHT22;6868;52.544;13.416;2023-02-23T04:20:46;3.80;99.90
13596;DHT22;6868;52.544;13.416;2023-02-23T04:23:13;3.80;99.90
13596;DHT22;6868;52.544;13.416;2023-02-23T04:25:41;3.70;99.90
13596;DHT22;6868;52.544;13.416;2023-02-23T04:35:30;3.70;99.90
13596;DHT22;6868;52.544;13.416;2023-02-23T04:42:53;3.60;99.90
13596;DHT22;6868;52.544;13.416;2023-02-23T04:47:48;3.50;99.90
13596;DHT22;6868;52.544;13.416;2023-02-23T04:50:15;3.60;99.90
13596;DHT22;6868;52.544;13.416;2023-02-23T04:52:42;3.60;99.90
13596;DHT22;6868;52.544;13.416;2023-02-23T05:00:12;3.40;99.90
13596;DHT22;6868;52.544;13.416;2023-02-23T05:02:39;3.80;99.90
13596;DHT22;6868;52.544;13.416;2023-02-23T05:17:23;3.30;99.90
13596;DHT22;6868;52.544;13.416;2023-02-23T05:24:44;3.20;99.90
13596;DHT22;6868;52.544;13.416;2023-02-23T05:32:06;3.20;99.90
13596;DHT22;6868;52.544;13.416;2023-02-23T05:39:29;3.20;99.90
13596;DHT22;6868;52.544;13.416;2023-02-23T05:41:56;3.30;99.90
13596;DHT22;6868;52.544;13.416;2023-02-23T05:44:23;3.40;99.90
13596;DHT22;6868;52.544;13.416;2023-02-23T05:46:49;3.40;99.90
13596;DHT22;6868;52.544;13.416;2023-02-23T05:49:17;4.10;99.90
13596;DHT22;6868;52.544;13.416;2023-02-23T05:54:10;3.10;99.90
13596;DHT22;6868;52.544;13.416;2023-02-23T05:56:39;3.10;99.90
13596;DHT22;6868;52.544;13.416;2023-02-23T05:59:06;3.20;99.90
13596;DHT22;6868;52.544;13.416;2023-02-23T06:01:33;3.10;99.90
13596;DHT22;6868;52.544;13.416;2023-02-23T06:03:59;3.20;99.90
13596;DHT22;6868;52.544;13.416;2023-02-23T06:06:26;3.20;99.90
13596;DHT22;6868;52.544;13.416;2023-02-23T06:08:53;3.10;99.90
13596;DHT22;6868;52.544;13.416;2023-02-23T06:11:20;2.90;99.90
13596;DHT22;6868;52.544;13.416;2023-02-23T06:21:10;2.60;99.90
13596;DHT22;6868;52.544;13.416;2023-02-23T06:23:37;3.20;99.90
13596;DHT22;6868;52.544;13.416;2023-02-23T06:30:57;3.10;99.90
13596;DHT22;6868;52.544;13.416;2023-02-23T06:35:51;2.80;99.90
13596;DHT22;6868;52.544;13.416;2023-02-23T06:38:20;3.70;99.90
13596;DHT22;6868;52.544;13.416;2023-02-23T06:40:48;3.60;99.90
13596;DHT22;6868;52.544;13.416;2023-02-23T06:45:42;3.30;99.90
13596;DHT22;6868;52.544;13.416;2023-02-23T06:48:08;3.60;99.90
13596;DHT22;6868;52.544;13.416;2023-02-23T06:53:02;3.40;99.90
13596;DHT22;6868;52.544;13.416;2023-02-23T06:57:58;3.50;99.90
13596;DHT22;6868;52.544;13.416;2023-02-23T07:00:25;3.60;99.90
13596;DHT22;6868;52.544;13.416;2023-02-23T07:02:51;3.80;99.90
13596;DHT22;6868;52.544;13.416;2023-02-23T07:05:18;3.70;99.90
13596;DHT22;6868;52.544;13.416;2023-02-23T07:07:45;3.80;99.90
13596;DHT22;6868;52.544;13.416;2023-02-23T07:12:39;4.20;99.90
13596;DHT22;6868;52.544;13.416;2023-02-23T07:15:08;3.80;99.90
13596;DHT22;6868;52.544;13.416;2023-02-23T07:17:35;3.70;99.90
13596;DHT22;6868;52.544;13.416;2023-02-23T07:20:02;5.30;99.90
13596;DHT22;6868;52.544;13.416;2023-02-23T07:22:29;4.50;99.90
13596;DHT22;6868;52.544;13.416;2023-02-23T07:24:58;4.70;99.90
13596;DHT22;6868;52.544;13.416;2023-02-23T07:27:25;4.80;99.90
13596;DHT22;6868;52.544;13.416;2023-02-23T07:29:54;5.20;99.90
13596;DHT22;6868;52.544;13.416;2023-02-23T07:32:22;4.60;99.90
13596;DHT22;6868;52.544;13.416;2023-02-23T07:34:49;4.50;99.90
13596;DHT22;6868;52.544;13.416;2023-02-23T07:37:16;4.50;99.90
13596;DHT22;6868;52.544;13.416;2023-02-23T07:39:43;4.80;99.90
13596;DHT22;6868;52.544;13.416;2023-02-23T07:42:10;5.00;99.90
13596;DHT22;6868;52.544;13.416;2023-02-23T07:44:37;5.50;99.90
13596;DHT22;6868;52.544;13.416;2023-02-23T07:47:04;4.90;99.90
13596;DHT22;6868;52.544;13.416;2023-02-23T07:49:32;4.90;99.90
13596;DHT22;6868;52.544;13.416;2023-02-23T07:51:59;5.40;99.90
13596;DHT22;6868;52.544;13.416;2023-02-23T07:54:26;5.00;99.90
13596;DHT22;6868;52.544;13.416;2023-02-23T07:56:53;5.30;99.90
13596;DHT22;6868;52.544;13.416;2023-02-23T07:59:20;5.00;99.90
13596;DHT22;6868;52.544;13.416;2023-02-23T08:01:46;5.00;99.90
13596;DHT22;6868;52.544;13.416;2023-02-23T08:04:16;5.10;99.90
13596;DHT22;6868;52.544;13.416;2023-02-23T08:06:56;4.90;99.90
13596;DHT22;6868;52.544;13.416;2023-02-23T08:09:23;5.40;99.90
13596;DHT22;6868;52.544;13.416;2023-02-23T08:11:50;5.40;99.90
13596;DHT22;6868;52.544;13.416;2023-02-23T08:16:47;5.60;99.90
13596;DHT22;6868;52.544;13.416;2023-02-23T08:19:14;5.50;99.90
13596;DHT22;6868;52.544;13.416;2023-02-23T08:21:41;5.60;99.90
13596;DHT22;6868;52.544;13.416;2023-02-23T08:24:10;5.70;99.90
13596;DHT22;6868;52.544;13.416;2023-02-23T08:26:37;5.50;99.90
13596;DHT22;6868;52.544;13.416;2023-02-23T08:29:05;5.40;99.90
13596;DHT22;6868;52.544;13.416;2023-02-23T08:33:59;5.60;99.90
13596;DHT22;6868;52.544;13.416;2023-02-23T08:36:26;5.60;99.90
13596;DHT22;6868;52.544;13.416;2023-02-23T08:38:53;5.80;99.90
13596;DHT22;6868;52.544;13.416;2023-02-23T08:41:21;5.70;99.90
13596;DHT22;6868;52.544;13.416;2023-02-23T08:43:48;6.50;99.90
13596;DHT22;6868;52.544;13.416;2023-02-23T08:46:14;6.10;99.90
13596;DHT22;6868;52.544;13.416;2023-02-23T08:51:11;6.00;99.90
13596;DHT22;6868;52.544;13.416;2023-02-23T08:53:39;6.60;99.90
13596;DHT22;6868;52.544;13.416;2023-02-23T08:56:06;6.20;99.90
13596;DHT22;6868;52.544;13.416;2023-02-23T08:58:35;6.30;99.90
13596;DHT22;6868;52.544;13.416;2023-02-23T09:01:02;6.30;99.90
13596;DHT22;6868;52.544;13.416;2023-02-23T09:03:29;6.50;99.90
13596;DHT22;6868;52.544;13.416;2023-02-23T09:05:56;6.50;99.90
13596;DHT22;6868;52.544;13.416;2023-02-23T09:08:23;6.60;99.90
13596;DHT22;6868;52.544;13.416;2023-02-23T09:10:49;6.50;99.90
13596;DHT22;6868;52.544;13.416;2023-02-23T09:13:18;6.70;99.90
13596;DHT22;6868;52.544;13.416;2023-02-23T09:15:46;7.10;99.90
13596;DHT22;6868;52.544;13.416;2023-02-23T09:18:13;6.70;99.90
13596;DHT22;6868;52.544;13.416;2023-02-23T09:20:41;6.70;99.90
13596;DHT22;6868;52.544;13.416;2023-02-23T09:23:08;7.00;99.90
13596;DHT22;6868;52.544;13.416;2023-02-23T09:25:38;6.80;99.90
13596;DHT22;6868;52.544;13.416;2023-02-23T09:28:08;7.20;99.90
13596;DHT22;6868;52.544;13.416;2023-02-23T09:30:36;7.20;99.90
13596;DHT22;6868;52.544;13.416;2023-02-23T09:33:04;7.00;99.90
13596;DHT22;6868;52.544;13.416;2023-02-23T09:35:32;7.10;99.90
13596;DHT22;6868;52.544;13.416;2023-02-23T09:38:01;7.40;99.90
13596;DHT22;6868;52.544;13.416;2023-02-23T09:40:29;7.50;99.90
13596;DHT22;6868;52.544;13.416;2023-02-23T09:42:58;7.40;99.90
13596;DHT22;6868;52.544;13.416;2023-02-23T09:47:57;7.60;99.90
13596;DHT22;6868;52.544;13.416;2023-02-23T09:50:29;7.80;99.90
13596;DHT22;6868;52.544;13.416;2023-02-23T09:52:57;7.80;99.90
13596;DHT22;6868;52.544;13.416;2023-02-23T09:55:25;7.80;99.90
13596;DHT22;6868;52.544;13.416;2023-02-23T09:57:52;7.90;99.90
13596;DHT22;6868;52.544;13.416;2023-02-23T10:00:20;8.10;99.90
13596;DHT22;6868;52.544;13.416;2023-02-23T10:03:09;8.60;99.90
13596;DHT22;6868;52.544;13.416;2023-02-23T10:05:41;8.40;99.90
13596;DHT22;6868;52.544;13.416;2023-02-23T10:10:38;8.40;99.90
13596;DHT22;6868;52.544;13.416;2023-02-23T10:13:07;8.50;99.90
13596;DHT22;6868;52.544;13.416;2023-02-23T10:15:41;8.70;99.90
13596;DHT22;6868;52.544;13.416;2023-02-23T10:18:12;8.90;99.90
13596;DHT22;6868;52.544;13.416;2023-02-23T10:20:44;9.00;99.90
13596;DHT22;6868;52.544;13.416;2023-02-23T10:23:17;9.30;99.90
13596;DHT22;6868;52.544;13.416;2023-02-23T10:28:12;9.40;99.90
13596;DHT22;6868;52.544;13.416;2023-02-23T10:30:40;9.80;99.90
13596;DHT22;6868;52.544;13.416;2023-02-23T10:33:09;9.70;99.90
13596;DHT22;6868;52.544;13.416;2023-02-23T10:35:38;9.80;99.90
13596;DHT22;6868;52.544;13.416;2023-02-23T10:38:12;9.80;99.90
13596;DHT22;6868;52.544;13.416;2023-02-23T10:40:39;10.30;99.90
13596;DHT22;6868;52.544;13.416;2023-02-23T10:43:08;10.10;99.90
13596;DHT22;6868;52.544;13.416;2023-02-23T10:45:37;10.00;99.90
13596;DHT22;6868;52.544;13.416;2023-02-23T10:48:06;10.00;99.90
13596;DHT22;6868;52.544;13.416;2023-02-23T10:53:03;10.20;99.90
13596;DHT22;6868;52.544;13.416;2023-02-23T10:55:32;10.30;99.90
13596;DHT22;6868;52.544;13.416;2023-02-23T10:58:03;10.30;99.90
13596;DHT22;6868;52.544;13.416;2023-02-23T11:00:31;10.30;99.90
13596;DHT22;6868;52.544;13.416;2023-02-23T11:03:01;10.50;99.90
13596;DHT22;6868;52.544;13.416;2023-02-23T11:05:33;10.70;99.90
13596;DHT22;6868;52.544;13.416;2023-02-23T11:08:17;10.80;99.90
13596;DHT22;6868;52.544;13.416;2023-02-23T11:11:01;10.60;99.90
13596;DHT22;6868;52.544;13.416;2023-02-23T11:13:32;10.40;99.90
13596;DHT22;6868;52.544;13.416;2023-02-23T11:16:00;10.40;99.90
13596;DHT22;6868;52.544;13.416;2023-02-23T11:18:27;10.20;99.90
13596;DHT22;6868;52.544;13.416;2023-02-23T11:20:55;10.30;99.90
13596;DHT22;6868;52.544;13.416;2023-02-23T11:23:22;10.30;99.90
13596;DHT22;6868;52.544;13.416;2023-02-23T11:25:54;10.50;99.90
13596;DHT22;6868;52.544;13.416;2023-02-23T11:28:23;9.90;99.90
13596;DHT22;6868;52.544;13.416;2023-02-23T11:30:52;10.30;99.90
13596;DHT22;6868;52.544;13.416;2023-02-23T11:33:24;10.30;99.90
13596;DHT22;6868;52.544;13.416;2023-02-23T11:35:56;10.40;99.90
13596;DHT22;6868;52.544;13.416;2023-02-23T11:38:24;10.70;99.90
13596;DHT22;6868;52.544;13.416;2023-02-23T11:40:57;10.70;99.90
13596;DHT22;6868;52.544;13.416;2023-02-23T11:43:25;11.20;99.90
13596;DHT22;6868;52.544;13.416;2023-02-23T11:45:53;11.50;99.90
13596;DHT22;6868;52.544;13.416;2023-02-23T11:48:21;11.00;99.90
13596;DHT22;6868;52.544;13.416;2023-02-23T11:50:49;11.00;99.90
13596;DHT22;6868;52.544;13.416;2023-02-23T11:58:16;11.20;99.90
13596;DHT22;6868;52.544;13.416;2023-02-23T12:00:48;11.20;99.90
13596;DHT22;6868;52.544;13.416;2023-02-23T12:03:20;11.10;99.90
13596;DHT22;6868;52.544;13.416;2023-02-23T12:05:48;11.00;99.90
13596;DHT22;6868;52.544;13.416;2023-02-23T15:22:32;11.90;99.90
13596;DHT22;6868;52.544;13.416;2023-02-23T15:25:00;10.10;99.90
13596;DHT22;6868;52.544;13.416;2023-02-23T15:27:29;10.20;99.90
13596;DHT22;6868;52.544;13.416;2023-02-23T15:29:56;10.30;99.90
13596;DHT22;6868;52.544;13.416;2023-02-23T15:32:24;10.20;99.90
13596;DHT22;6868;52.544;13.416;2023-02-23T15:34:51;10.30;99.90
13596;DHT22;6868;52.544;13.416;2023-02-23T15:37:26;9.10;99.90
13596;DHT22;6868;52.544;13.416;2023-02-23T15:39:57;10.50;99.90
13596;DHT22;6868;52.544;13.416;2023-02-23T15:42:27;10.00;99.90
13596;DHT22;6868;52.544;13.416;2023-02-23T15:45:12;10.00;99.90
13596;DHT22;6868;52.544;13.416;2023-02-23T15:47:44;10.10;99.90
13596;DHT22;6868;52.544;13.416;2023-02-23T15:50:13;10.40;99.90
13596;DHT22;6868;52.544;13.416;2023-02-23T15:52:48;10.00;99.90
13596;DHT22;6868;52.544;13.416;2023-02-23T15:55:22;9.90;99.90
13596;DHT22;6868;52.544;13.416;2023-02-23T15:57:53;9.80;99.90
13596;DHT22;6868;52.544;13.416;2023-02-23T16:00:27;9.80;99.90
13596;DHT22;6868;52.544;13.416;2023-02-23T16:02:58;10.00;99.90
13596;DHT22;6868;52.544;13.416;2023-02-23T16:05:25;9.70;99.90
13596;DHT22;6868;52.544;13.416;2023-02-23T16:10:42;9.60;99.90
13596;DHT22;6868;52.544;13.416;2023-02-23T16:13:11;9.90;99.90
13596;DHT22;6868;52.544;13.416;2023-02-23T16:15:39;9.70;99.90
13596;DHT22;6868;52.544;13.416;2023-02-23T16:18:09;10.10;99.90
13596;DHT22;6868;52.544;13.416;2023-02-23T16:20:40;9.80;99.90
13596;DHT22;6868;52.544;13.416;2023-02-23T16:23:11;10.00;99.90
13596;DHT22;6868;52.544;13.416;2023-02-23T16:25:42;9.80;99.90
13596;DHT22;6868;52.544;13.416;2023-02-23T16:28:11;9.60;99.90
13596;DHT22;6868;52.544;13.416;2023-02-23T16:30:41;9.30;99.90
13596;DHT22;6868;52.544;13.416;2023-02-23T16:33:13;9.60;99.90
13596;DHT22;6868;52.544;13.416;2023-02-23T16:35:46;9.80;99.90
13596;DHT22;6868;52.544;13.416;2023-02-23T16:38:13;9.50;99.90
13596;DHT22;6868;52.544;13.416;2023-02-23T16:40:42;9.50;99.90
13596;DHT22;6868;52.544;13.416;2023-02-23T16:43:13;9.50;99.90
13596;DHT22;6868;52.544;13.416;2023-02-23T16:45:40;9.50;99.90
13596;DHT22;6868;52.544;13.416;2023-02-23T16:48:10;9.70;99.90
13596;DHT22;6868;52.544;13.416;2023-02-23T16:50:38;9.80;99.90
13596;DHT22;6868;52.544;13.416;2023-02-23T16:53:06;9.40;99.90
13596;DHT22;6868;52.544;13.416;2023-02-23T16:55:36;9.40;99.90
13596;DHT22;6868;52.544;13.416;2023-02-23T16:58:08;8.80;99.90
13596;DHT22;6868;52.544;13.416;2023-02-23T17:00:39;9.30;99.90
13596;DHT22;6868;52.544;13.416;2023-02-23T17:03:11;9.80;99.90
13596;DHT22;6868;52.544;13.416;2023-02-23T17:05:39;9.50;99.90
13596;DHT22;6868;52.544;13.416;2023-02-23T17:08:06;9.20;99.90
13596;DHT22;6868;52.544;13.416;2023-02-23T17:10:35;9.30;99.90
13596;DHT22;6868;52.544;13.416;2023-02-23T17:13:03;9.30;99.90
13596;DHT22;6868;52.544;13.416;2023-02-23T17:15:33;9.50;99.90
13596;DHT22;6868;52.544;13.416;2023-02-23T17:18:07;9.40;99.90
13596;DHT22;6868;52.544;13.416;2023-02-23T17:20:34;9.30;99.90
13596;DHT22;6868;52.544;13.416;2023-02-23T17:23:04;8.90;99.90
13596;DHT22;6868;52.544;13.416;2023-02-23T17:25:31;9.10;99.90
13596;DHT22;6868;52.544;13.416;2023-02-23T17:27:59;9.60;99.90
13596;DHT22;6868;52.544;13.416;2023-02-23T17:30:26;9.20;99.90
13596;DHT22;6868;52.544;13.416;2023-02-23T17:32:56;8.70;99.90
13596;DHT22;6868;52.544;13.416;2023-02-23T17:35:23;9.20;99.90
13596;DHT22;6868;52.544;13.416;2023-02-23T17:37:51;9.20;99.90
13596;DHT22;6868;52.544;13.416;2023-02-23T17:40:19;9.10;99.90
13596;DHT22;6868;52.544;13.416;2023-02-23T17:42:53;9.30;99.90
13596;DHT22;6868;52.544;13.416;2023-02-23T17:45:20;9.00;99.90
13596;DHT22;6868;52.544;13.416;2023-02-23T17:47:48;9.00;99.90
13596;DHT22;6868;52.544;13.416;2023-02-23T17:50:17;9.00;99.90
13596;DHT22;6868;52.544;13.416;2023-02-23T17:52:46;9.20;99.90
13596;DHT22;6868;52.544;13.416;2023-02-23T17:55:19;9.40;99.90
13596;DHT22;6868;52.544;13.416;2023-02-23T17:57:46;8.90;99.90
13596;DHT22;6868;52.544;13.416;2023-02-23T18:00:16;9.00;99.90
13596;DHT22;6868;52.544;13.416;2023-02-23T18:02:43;9.00;99.90
13596;DHT22;6868;52.544;13.416;2023-02-23T18:05:11;8.80;99.90
13596;DHT22;6868;52.544;13.416;2023-02-23T18:07:40;9.20;99.90
13596;DHT22;6868;52.544;13.416;2023-02-23T18:10:08;8.90;99.90
13596;DHT22;6868;52.544;13.416;2023-02-23T18:12:35;9.20;99.90
13596;DHT22;6868;52.544;13.416;2023-02-23T18:15:04;9.50;99.90
13596;DHT22;6868;52.544;13.416;2023-02-23T18:17:31;9.10;99.90
13596;DHT22;6868;52.544;13.416;2023-02-23T18:20:02;9.00;99.90
13596;DHT22;6868;52.544;13.416;2023-02-23T18:22:30;8.70;99.90
13596;DHT22;6868;52.544;13.416;2023-02-23T18:24:59;9.40;99.90
13596;DHT22;6868;52.544;13.416;2023-02-23T18:27:26;8.90;99.90
13596;DHT22;6868;52.544;13.416;2023-02-23T18:29:53;9.00;99.90
13596;DHT22;6868;52.544;13.416;2023-02-23T18:32:20;8.30;99.90
13596;DHT22;6868;52.544;13.416;2023-02-23T18:34:47;8.30;99.90
13596;DHT22;6868;52.544;13.416;2023-02-23T18:37:15;9.10;99.90
13596;DHT22;6868;52.544;13.416;2023-02-23T18:39:50;9.40;99.90
13596;DHT22;6868;52.544;13.416;2023-02-23T18:42:19;8.90;99.90
13596;DHT22;6868;52.544;13.416;2023-02-23T18:44:46;8.80;99.90
13596;DHT22;6868;52.544;13.416;2023-02-23T18:47:13;9.10;99.90
13596;DHT22;6868;52.544;13.416;2023-02-23T18:49:40;8.90;99.90
13596;DHT22;6868;52.544;13.416;2023-02-23T18:52:07;9.20;99.90
13596;DHT22;6868;52.544;13.416;2023-02-23T18:54:34;9.00;99.90
13596;DHT22;6868;52.544;13.416;2023-02-23T18:57:04;8.70;99.90
13596;DHT22;6868;52.544;13.416;2023-02-23T18:59:34;8.60;99.90
13596;DHT22;6868;52.544;13.416;2023-02-23T19:02:02;8.80;99.90
13596;DHT22;6868;52.544;13.416;2023-02-23T19:04:29;8.90;99.90
13596;DHT22;6868;52.544;13.416;2023-02-23T19:06:56;9.10;99.90
13596;DHT22;6868;52.544;13.416;2023-02-23T19:09:24;9.40;99.90
13596;DHT22;6868;52.544;13.416;2023-02-23T19:11:51;8.30;99.90
13596;DHT22;6868;52.544;13.416;2023-02-23T19:14:19;8.70;99.90
13596;DHT22;6868;52.544;13.416;2023-02-23T19:16:47;9.50;99.90
13596;DHT22;6868;52.544;13.416;2023-02-23T19:19:15;8.10;99.90
13596;DHT22;6868;52.544;13.416;2023-02-23T19:21:42;8.80;99.90
13596;DHT22;6868;52.544;13.416;2023-02-23T19:24:09;8.70;99.90
13596;DHT22;6868;52.544;13.416;2023-02-23T19:26:39;8.90;99.90
13596;DHT22;6868;52.544;13.416;2023-02-23T19:29:06;8.60;99.90
13596;DHT22;6868;52.544;13.416;2023-02-23T19:36:33;8.60;99.90
13596;DHT22;6868;52.544;13.416;2023-02-23T19:39:01;9.20;99.90
13596;DHT22;6868;52.544;13.416;2023-02-23T19:41:35;8.80;99.90
13596;DHT22;6868;52.544;13.416;2023-02-23T19:46:29;8.60;99.90
13596;DHT22;6868;52.544;13.416;2023-02-23T19:48:56;8.90;99.90
13596;DHT22;6868;52.544;13.416;2023-02-23T19:51:23;8.70;99.90
13596;DHT22;6868;52.544;13.416;2023-02-23T19:56:19;8.30;99.90
13596;DHT22;6868;52.544;13.416;2023-02-23T19:58:47;8.70;99.90
13596;DHT22;6868;52.544;13.416;2023-02-23T20:06:09;8.40;99.90
13596;DHT22;6868;52.544;13.416;2023-02-23T20:28:17;7.90;99.90
13596;DHT22;6868;52.544;13.416;2023-02-23T20:30:45;8.00;99.90
13596;DHT22;6868;52.544;13.416;2023-02-23T20:43:01;7.70;99.90
13596;DHT22;6868;52.544;13.416;2023-02-23T20:45:30;7.70;99.90
13596;DHT22;6868;52.544;13.416;2023-02-23T20:47:57;8.20;99.90
13596;DHT22;6868;52.544;13.416;2023-02-23T20:50:25;6.60;99.90
13596;DHT22;6868;52.544;13.416;2023-02-23T20:52:57;7.90;99.90
13596;DHT22;6868;52.544;13.416;2023-02-23T20:55:26;7.60;99.90
13596;DHT22;6868;52.544;13.416;2023-02-23T20:57:54;7.30;99.90
13596;DHT22;6868;52.544;13.416;2023-02-23T21:00:21;7.90;99.90
13596;DHT22;6868;52.544;13.416;2023-02-23T21:02:58;7.90;99.90
13596;DHT22;6868;52.544;13.416;2023-02-23T21:05:27;7.40;99.90
13596;DHT22;6868;52.544;13.416;2023-02-23T21:07:56;8.10;99.90
13596;DHT22;6868;52.544;13.416;2023-02-23T21:10:24;7.60;99.90
13596;DHT22;6868;52.544;13.416;2023-02-23T21:20:18;7.40;99.90
13596;DHT22;6868;52.544;13.416;2023-02-23T21:25:13;7.40;99.90
13596;DHT22;6868;52.544;13.416;2023-02-23T21:30:10;7.40;99.90
13596;DHT22;6868;52.544;13.416;2023-02-23T21:32:40;7.70;99.90
13596;DHT22;6868;52.544;13.416;2023-02-23T21:35:08;7.90;99.90
13596;DHT22;6868;52.544;13.416;2023-02-23T21:40:05;7.40;99.90
13596;DHT22;6868;52.544;13.416;2023-02-23T21:45:04;7.40;99.90
13596;DHT22;6868;52.544;13.416;2023-02-23T21:47:32;7.90;99.90
13596;DHT22;6868;52.544;13.416;2023-02-23T21:57:27;7.20;99.90
13596;DHT22;6868;52.544;13.416;2023-02-23T21:59:55;7.60;99.90
13596;DHT22;6868;52.544;13.416;2023-02-23T22:12:20;7.30;99.90
13596;DHT22;6868;52.544;13.416;2023-02-23T22:14:49;7.30;99.90
13596;DHT22;6868;52.544;13.416;2023-02-23T22:17:16;7.30;99.90
13596;DHT22;6868;52.544;13.416;2023-02-23T22:19:44;7.30;99.90
13596;DHT22;6868;52.544;13.416;2023-02-23T22:24:38;7.10;99.90
13596;DHT22;6868;52.544;13.416;2023-02-23T22:27:05;7.30;99.90
13596;DHT22;6868;52.544;13.416;2023-02-23T22:29:34;7.50;99.90
13596;DHT22;6868;52.544;13.416;2023-02-23T22:32:02;7.10;99.90
13596;DHT22;6868;52.544;13.416;2023-02-23T22:34:29;7.40;99.90
13596;DHT22;6868;52.544;13.416;2023-02-23T22:36:57;7.20;99.90
13596;DHT22;6868;52.544;13.416;2023-02-23T22:39:24;7.40;99.90
13596;DHT22;6868;52.544;13.416;2023-02-23T22:41:51;8.00;99.90
13596;DHT22;6868;52.544;13.416;2023-02-23T22:44:20;7.30;99.90
13596;DHT22;6868;52.544;13.416;2023-02-23T22:46:47;7.30;99.90
13596;DHT22;6868;52.544;13.416;2023-02-23T22:49:15;6.60;99.90
13596;DHT22;6868;52.544;13.416;2023-02-23T22:51:44;6.90;99.90
13596;DHT22;6868;52.544;13.416;2023-02-23T22:54:11;7.70;99.90
13596;DHT22;6868;52.544;13.416;2023-02-23T22:56:44;7.30;99.90
13596;DHT22;6868;52.544;13.416;2023-02-23T22:59:11;7.30;99.90
13596;DHT22;6868;52.544;13.416;2023-02-23T23:04:08;7.00;99.90
13596;DHT22;6868;52.544;13.416;2023-02-23T23:06:38;7.20;99.90
13596;DHT22;6868;52.544;13.416;2023-02-23T23:09:06;6.70;99.90
13596;DHT22;6868;52.544;13.416;2023-02-23T23:11:33;7.20;99.90
13596;DHT22;6868;52.544;13.416;2023-02-23T23:14:02;7.50;99.90
13596;DHT22;6868;52.544;13.416;2023-02-23T23:19:01;7.00;99.90
13596;DHT22;6868;52.544;13.416;2023-02-23T23:21:29;7.10;99.90
13596;DHT22;6868;52.544;13.416;2023-02-23T23:23:58;7.10;99.90
13596;DHT22;6868;52.544;13.416;2023-02-23T23:26:26;7.60;99.90
13596;DHT22;6868;52.544;13.416;2023-02-23T23:28:54;7.40;99.90
13596;DHT22;6868;52.544;13.416;2023-02-23T23:36:20;7.10;99.90
13596;DHT22;6868;52.544;13.416;2023-02-23T23:38:48;7.20;99.90